Latest Weather Observations for Grafton Airport

IDN60801

Issued at 5:42 am EST Friday 26 April 2019 (issued every 10 minutes, with the page automatically refreshed every 10 minutes)

About weather observations | Map of weather stations | Latest weather observations for NSW | Other Formats
Station Details ID: 058161 Name: GRAFTON AIRPORT AWS Lat: -29.76 Lon: 153.03 Height: 25.09 m
Data from the previous 72 hours. | See also: Recent months at Grafton Airport
Date/Time
EST
Temp
°C
App
Temp
°C
Dew
Point
°C
Rel
Hum
%
Delta-T
°C
Wind Press
QNH
hPa
Press
MSL
hPa
Rain since
9am
mm
Dir  Spd
km/h
Gust
km/h
Spd
kts
Gust
kts
26/05:30am 14.8 16.4 14.8 100 0.0 CALM 0 0 0 0 1017.8 1017.7 0.0
26/05:09am 14.6 16.1 14.6 100 0.0 CALM 0 0 0 0 1017.7 1017.6 0.0
26/05:00am 15.0 16.6 15.0 100 0.0 CALM 0 0 0 0 1017.7 1017.6 0.0
26/04:30am 14.6 16.0 14.4 99 0.1 CALM 0 0 0 0 1017.7 1017.6 0.0
26/04:17am 15.2 16.9 15.2 100 0.0 CALM 0 0 0 0 1017.7 1017.6 0.0
26/04:00am 15.2 16.9 15.2 100 0.0 CALM 0 0 0 0 1017.8 1017.7 0.0
26/03:30am 15.7 17.6 15.7 100 0.0 CALM 0 0 0 0 1017.9 1017.8 0.0
26/03:00am 16.0 18.0 16.0 100 0.0 CALM 0 0 0 0 1018.0 1017.9 0.0
26/02:41am 16.1 18.1 16.1 100 0.0 CALM 0 0 0 0 1018.3 1018.2 0.0
26/02:30am 16.3 18.4 16.3 100 0.0 CALM 0 6 0 3 1018.3 1018.2 0.0
26/02:00am 16.6 17.7 16.6 100 0.0 SSW 6 9 3 5 1018.7 1018.6 0.0
26/01:30am 16.7 19.0 16.7 100 0.0 CALM 0 6 0 3 1019.1 1019.0 0.0
26/01:00am 16.9 19.3 16.9 100 0.0 CALM 0 0 0 0 1019.2 1019.1 0.0
26/12:30am 16.8 19.1 16.8 100 0.0 CALM 0 0 0 0 1019.4 1019.3 0.0
26/12:00am 16.6 18.8 16.4 99 0.1 CALM 0 0 0 0 1019.6 1019.5 0.0
 
Date/Time
EST
Temp
°C
App
Temp
°C
Dew
Point
°C
Rel
Hum
%
Delta-T
°C
Wind Press
QNH
hPa
Press
MSL
hPa
Rain since
9am
mm
Dir  Spd
km/h
Gust
km/h
Spd
kts
Gust
kts
25/11:30pm 16.4 18.5 16.2 99 0.1 CALM 0 0 0 0 1019.6 1019.5 0.0
25/11:00pm 16.3 18.3 16.1 99 0.1 CALM 0 0 0 0 1019.8 1019.7 0.0
25/10:30pm 16.4 17.3 16.2 99 0.1 SSW 6 9 3 5 1020.0 1019.9 0.0
25/10:00pm 17.2 19.6 16.9 98 0.2 CALM 0 6 0 3 1020.3 1020.2 0.0
25/09:30pm 17.2 19.1 16.6 96 0.4 SSW 2 7 1 4 1020.3 1020.2 0.0
25/09:00pm 17.6 19.0 17.3 98 0.2 S 6 9 3 5 1020.4 1020.3 0.0
25/08:30pm 17.3 18.3 16.3 94 0.6 S 6 7 3 4 1020.1 1020.0 0.0
25/08:00pm 17.7 19.7 16.0 90 1.0 CALM 0 0 0 0 1020.0 1019.9 0.0
25/07:30pm 18.4 19.4 16.4 88 1.2 E 6 6 3 3 1019.8 1019.7 0.0
25/07:00pm 19.1 21.2 16.3 84 1.7 CALM 0 0 0 0 1019.7 1019.6 0.0
25/06:30pm 19.8 21.2 16.3 80 2.1 NE 4 7 2 4 1019.5 1019.4 0.0
25/06:00pm 20.3 21.2 16.1 77 2.5 ENE 6 7 3 4 1019.2 1019.1 0.0
25/05:30pm 20.9 21.2 16.1 74 2.9 ENE 9 13 5 7 1019.0 1018.9 0.0
25/05:00pm 22.0 21.9 16.1 69 3.6 ENE 11 15 6 8 1018.6 1018.5 0.0
25/04:30pm 23.1 22.4 16.4 66 4.1 ENE 15 20 8 11 1018.5 1018.4 0.0
25/04:00pm 23.4 23.0 16.2 64 4.4 ENE 13 19 7 10 1018.4 1018.3 0.0
25/03:30pm 25.0 24.5 15.9 57 5.5 NE 13 22 7 12 1018.2 1018.1 0.0
25/03:00pm 25.6 24.7 15.9 55 5.9 N 15 20 8 11 1018.3 1018.2 0.0
25/02:30pm 25.0 24.9 15.0 53 6.0 NNW 9 15 5 8 1018.5 1018.4 0.0
25/02:00pm 25.2 24.5 15.5 55 5.9 NNE 13 20 7 11 1018.6 1018.5 0.0
25/01:30pm 24.4 23.8 14.5 54 5.9 N 11 19 6 10 1018.8 1018.7 0.0
25/01:00pm 24.7 24.7 15.3 56 5.6 N 9 19 5 10 1019.1 1019.0 0.0
25/12:30pm 24.2 24.6 15.4 58 5.3 NW 7 11 4 6 1019.5 1019.4 0.0
25/12:00pm 24.7 24.6 15.9 58 5.3 N 11 17 6 9 1020.0 1019.9 0.0
25/11:30am 24.2 25.4 15.9 59 5.0 NNE 4 9 2 5 1020.7 1020.6 0.0
25/11:00am 23.2 24.4 15.8 63 4.5 NNE 4 9 2 5 1021.1 1021.0 0.0
25/10:30am 21.9 23.7 16.4 71 3.3 WNW 2 7 1 4 1021.6 1021.5 0.0
25/10:00am 21.1 22.4 17.1 78 2.4 W 6 9 3 5 1021.9 1021.8 0.0
25/09:30am 19.9 21.2 17.1 84 1.7 W 6 9 3 5 1022.0 1021.9 0.0
25/09:00am 19.2 22.0 18.0 93 0.7 CALM 0 6 0 3 1022.0 1021.9 0.0
25/08:30am 18.6 21.5 18.1 97 0.3 CALM 0 0 0 0 1022.1 1022.0 0.0
25/08:00am 18.2 20.3 18.2 100 0.0 SSW 4 7 2 4 1021.9 1021.8 0.0
25/07:30am 17.7 20.4 17.7 100 0.0 CALM 0 0 0 0 1021.8 1021.7 0.0
25/07:00am 17.2 19.7 17.2 100 0.0 CALM 0 0 0 0 1021.7 1021.6 0.0
25/06:30am 16.5 18.7 16.5 100 0.0 CALM 0 0 0 0 1021.6 1021.5 0.0
25/06:00am 16.8 19.1 16.8 100 0.0 CALM 0 0 0 0 1021.4 1021.3 0.0
25/05:30am 17.1 19.5 17.1 100 0.0 CALM 0 0 0 0 1021.5 1021.4 0.0
25/05:00am 17.2 19.3 17.2 100 0.0 SW 2 7 1 4 1021.2 1021.1 0.0
25/04:30am 17.3 19.1 17.3 100 0.0 WSW 4 7 2 4 1021.0 1020.9 0.0
25/04:00am 17.4 19.6 17.4 100 0.0 SE 2 7 1 4 1021.2 1021.1 0.0
25/03:41am 17.3 19.8 17.3 100 0.0 CALM 0 0 0 0 1021.2 1021.1 0.0
25/03:30am 17.3 18.7 17.3 100 0.0 ENE 6 7 3 4 1021.3 1021.2 0.0
25/03:12am 17.3 18.1 17.3 100 0.0 NE 9 13 5 7 1021.3 1021.2 0.0
25/03:00am 17.4 18.2 17.4 100 0.0 NE 9 11 5 6 1021.2 1021.1 0.0
25/02:30am 17.4 18.6 17.4 100 0.0 S 7 11 4 6 1021.1 1021.0 0.0
25/02:08am 17.3 18.4 17.1 99 0.1 SSW 7 11 4 6 1021.3 1021.2 0.0
25/02:00am 17.3 18.4 17.1 99 0.1 SW 7 9 4 5 1021.3 1021.2 0.0
25/01:54am 17.6 19.4 17.4 99 0.1 SSW 4 9 2 5 1021.6 1021.5 0.0
25/01:30am 17.2 18.4 16.9 98 0.2 SW 6 9 3 5 1021.8 1021.7 0.0
25/01:00am 17.3 19.0 17.1 99 0.1 S 4 7 2 4 1022.2 1022.1 0.0
25/12:30am 17.0 18.2 16.8 99 0.1 SW 6 7 3 4 1022.4 1022.3 0.0
25/12:00am 17.0 17.9 16.5 97 0.3 SSW 7 9 4 5 1022.4 1022.3 0.0
 
Date/Time
EST
Temp
°C
App
Temp
°C
Dew
Point
°C
Rel
Hum
%
Delta-T
°C
Wind Press
QNH
hPa
Press
MSL
hPa
Rain since
9am
mm
Dir  Spd
km/h
Gust
km/h
Spd
kts
Gust
kts
24/11:30pm 17.3 18.6 17.0 98 0.2 SSE 6 7 3 4 1022.4 1022.3 0.0
24/11:00pm 17.2 17.8 16.9 98 0.2 SSW 9 11 5 6 1022.6 1022.5 0.0
24/10:30pm 17.3 18.0 17.1 99 0.1 SSW 9 11 5 6 1022.8 1022.7 0.0
24/10:00pm 17.2 17.9 17.0 99 0.1 SSW 9 11 5 6 1022.9 1022.8 0.0
24/09:30pm 16.8 17.7 16.6 99 0.1 SW 7 9 4 5 1023.1 1023.0 0.0
24/09:00pm 17.2 17.8 16.9 98 0.2 SSW 9 11 5 6 1023.2 1023.1 0.0
24/08:30pm 17.1 18.1 16.8 98 0.2 SSW 7 9 4 5 1023.2 1023.1 0.0
24/08:00pm 17.0 17.9 16.0 94 0.6 SW 6 7 3 4 1023.1 1023.0 0.0
24/07:30pm 17.5 18.4 16.2 92 0.8 SW 6 7 3 4 1023.0 1022.9 0.0
24/07:00pm 18.2 20.1 15.8 86 1.4 CALM 0 6 0 3 1023.0 1022.9 0.0
24/06:30pm 19.0 19.7 16.2 84 1.7 S 7 9 4 5 1022.8 1022.7 0.0
24/06:00pm 20.0 20.8 16.4 80 2.2 SE 7 13 4 7 1022.6 1022.5 0.0
24/05:30pm 20.6 21.0 16.4 77 2.5 SE 9 13 5 7 1022.5 1022.4 0.0
24/05:00pm 21.3 21.4 16.5 74 2.9 SE 11 13 6 7 1022.3 1022.2 0.0
24/04:30pm 21.9 21.4 16.0 69 3.6 SE 13 19 7 10 1022.1 1022.0 0.0
24/04:00pm 22.3 22.6 16.1 68 3.7 ESE 9 15 5 8 1022.1 1022.0 0.0
24/03:30pm 22.3 21.8 15.9 67 3.9 ESE 13 17 7 9 1022.0 1021.9 0.0
24/03:00pm 22.7 22.2 16.0 66 4.0 SE 13 17 7 9 1021.9 1021.8 0.0
24/02:30pm 22.9 21.6 15.7 64 4.3 SE 17 22 9 12 1021.7 1021.6 0.0
24/02:00pm 24.0 23.4 14.7 56 5.5 ESE 11 17 6 9 1021.7 1021.6 0.0
24/01:30pm 24.0 23.0 14.7 56 5.5 ESE 13 15 7 8 1022.0 1021.9 0.0
24/01:00pm 24.1 23.6 14.8 56 5.5 SE 11 19 6 10 1022.2 1022.1 0.0
24/12:30pm 23.9 23.0 14.9 57 5.4 SE 13 17 7 9 1022.5 1022.4 0.0
24/12:00pm 23.5 23.4 15.0 59 5.1 SE 9 15 5 8 1023.0 1022.9 0.0
24/11:30am 23.3 23.6 15.9 63 4.5 ESE 9 13 5 7 1023.4 1023.3 0.0
24/11:00am 23.1 23.7 16.9 68 3.8 SSW 9 15 5 8 1024.1 1024.0 0.0
24/10:30am 23.3 23.6 16.1 64 4.4 S 9 13 5 7 1024.3 1024.2 0.0
24/10:00am 22.6 23.8 17.3 72 3.3 SW 7 13 4 7 1024.5 1024.4 0.0
24/09:30am 22.1 23.6 17.7 76 2.7 S 6 9 3 5 1024.6 1024.5 0.0
24/09:00am 20.8 22.2 17.8 83 1.8 SW 7 11 4 6 1024.8 1024.7 10.0
24/08:30am 19.4 20.8 18.6 95 0.5 SW 9 11 5 6 1024.8 1024.7 10.0
24/08:00am 18.0 19.7 18.0 100 0.0 WSW 6 7 3 4 1025.0 1024.9 10.0
24/07:30am 17.6 19.5 17.6 100 0.0 SSW 4 9 2 5 1024.8 1024.7 10.0
24/07:00am 17.2 18.5 17.2 100 0.0 WSW 6 9 3 5 1024.3 1024.2 10.0
24/06:30am 17.0 18.3 17.0 100 0.0 S 6 9 3 5 1024.1 1024.0 10.0
24/06:00am 16.5 17.4 16.5 100 0.0 SW 7 9 4 5 1023.9 1023.8 10.0
24/05:30am 16.8 19.1 16.8 100 0.0 CALM 0 0 0 0 1023.8 1023.7 10.0
24/05:12am 17.1 18.2 17.1 100 0.0 SSE 7 11 4 6 1023.5 1023.4 9.8
24/05:00am 16.7 17.8 16.7 100 0.0 SW 6 9 3 5 1023.3 1023.2 9.4
24/04:30am 16.9 17.5 16.9 100 0.0 SSW 9 13 5 7 1023.1 1023.0 9.4
24/04:00am 16.4 17.2 16.4 100 0.0 SW 7 9 4 5 1023.0 1022.9 9.4
24/03:30am 16.4 16.8 16.4 100 0.0 SW 9 11 5 6 1023.0 1022.9 9.4
24/03:00am 16.6 17.5 16.6 100 0.0 SSW 7 11 4 6 1023.3 1023.2 9.4
24/02:58am 16.6 17.5 16.6 100 0.0 SSW 7 11 4 6 1023.3 1023.2 9.4
24/02:37am 16.2 16.9 16.2 100 0.0 SSW 7 9 4 5 1023.3 1023.2 9.4
24/02:30am 16.5 17.6 16.5 100 0.0 SSW 6 9 3 5 1023.4 1023.3 9.4
24/02:21am 16.5 17.6 16.5 100 0.0 SSW 6 7 3 4 1023.5 1023.4 9.4
24/02:00am 16.4 17.2 16.4 100 0.0 SSW 7 9 4 5 1023.7 1023.6 9.2
24/01:51am 16.6 17.5 16.6 100 0.0 SW 7 9 4 5 1023.8 1023.7 9.2
24/01:30am 17.2 18.5 17.2 100 0.0 SW 6 7 3 4 1024.2 1024.1 9.2
24/01:00am 17.3 18.7 17.3 100 0.0 SW 6 9 3 5 1024.4 1024.3 9.2
24/12:30am 17.6 19.1 17.6 100 0.0 SSW 6 7 3 4 1024.2 1024.1 9.2
24/12:00am 17.8 19.2 17.8 100 0.0 SW 7 9 4 5 1024.6 1024.5 9.2
 
Date/Time
EST
Temp
°C
App
Temp
°C
Dew
Point
°C
Rel
Hum
%
Delta-T
°C
Wind Press
QNH
hPa
Press
MSL
hPa
Rain since
9am
mm
Dir  Spd
km/h
Gust
km/h
Spd
kts
Gust
kts
23/11:30pm 18.0 20.8 18.0 100 0.0 CALM 0 6 0 3 1024.8 1024.7 9.2
23/11:00pm 18.2 19.4 18.2 100 0.0 SSW 9 11 5 6 1024.9 1024.8 9.2
23/10:30pm 18.3 19.1 18.1 99 0.1 SSW 11 13 6 7 1025.2 1025.1 9.2
23/10:00pm 18.4 19.6 18.2 99 0.1 SSW 9 13 5 7 1025.4 1025.3 9.2
23/09:30pm 18.5 19.4 18.3 99 0.1 SSW 11 13 6 7 1025.8 1025.7 9.2
23/09:00pm 18.5 19.4 18.3 99 0.1 S 11 13 6 7 1025.8 1025.7 9.0
23/08:30pm 18.6 19.4 18.1 97 0.3 SSW 11 17 6 9 1025.5 1025.4 9.0
23/08:03pm 18.7 19.8 18.0 96 0.4 SW 9 11 5 6 1025.7 1025.6 9.0
23/08:00pm 18.7 19.8 17.9 95 0.5 SW 9 11 5 6 1025.7 1025.6 9.0
23/07:30pm 18.5 18.5 17.3 93 0.7 S 13 19 7 10 1025.5 1025.4 8.0
23/07:07pm 19.1 20.0 18.4 96 0.4 S 11 20 6 11 1025.2 1025.1 6.8
23/07:00pm 19.2 20.5 18.4 95 0.5 SW 9 13 5 7 1025.2 1025.1 6.6
23/06:54pm 19.2 20.5 18.4 95 0.5 SW 9 13 5 7 1025.1 1025.0 6.6
23/06:30pm 19.7 20.1 18.2 91 0.9 S 13 17 7 9 1024.9 1024.8 5.8
23/06:26pm 19.8 20.9 18.1 90 1.1 SSW 9 17 5 9 1024.8 1024.7 5.6
23/06:00pm 20.1 21.4 17.5 85 1.6 SW 7 11 4 6 1024.3 1024.2 4.8
23/05:30pm 20.6 21.9 17.6 83 1.8 SW 7 11 4 6 1024.3 1024.2 4.8
23/05:00pm 21.5 24.2 17.7 79 2.3 CALM 0 7 0 4 1024.0 1023.9 4.8
23/04:30pm 22.3 23.9 16.8 71 3.4 E 4 7 2 4 1023.8 1023.7 4.8
23/04:00pm 22.6 24.0 17.3 72 3.3 ESE 6 9 3 5 1023.6 1023.5 4.8
23/03:30pm 22.7 22.9 16.7 69 3.7 ESE 11 15 6 8 1023.5 1023.4 4.8
23/03:00pm 22.8 21.4 14.6 60 4.8 ESE 15 20 8 11 1023.5 1023.4 4.8
23/02:30pm 23.2 23.4 16.7 67 4.0 ESE 11 20 6 11 1023.4 1023.3 4.8
23/02:00pm 23.0 22.8 16.8 68 3.8 SE 13 22 7 12 1023.3 1023.2 4.8
23/01:30pm 22.7 23.6 18.5 77 2.6 SSE 11 20 6 11 1023.4 1023.3 4.8
23/01:00pm 22.1 24.0 19.8 87 1.5 SSW 9 13 5 7 1023.7 1023.6 4.8
23/12:30pm 21.6 23.8 19.5 88 1.3 SSW 7 9 4 5 1024.0 1023.9 4.8
23/12:00pm 21.0 22.7 18.4 85 1.6 S 7 11 4 6 1024.6 1024.5 4.8
23/11:36am 20.8 22.6 19.6 93 0.8 SSW 9 11 5 6 1025.0 1024.9 4.8
23/11:30am 20.7 22.7 19.9 95 0.5 S 9 13 5 7 1025.0 1024.9 4.8
23/11:20am 20.5 22.3 19.5 94 0.6 SSW 9 13 5 7 1025.2 1025.1 4.6
23/11:00am 20.5 22.5 19.2 92 0.8 S 7 11 4 6 1025.6 1025.5 2.4
23/10:40am 20.8 22.2 18.7 88 1.3 SSW 9 20 5 11 1025.7 1025.6 1.6
23/10:39am 21.0 22.5 18.9 88 1.3 SW 9 20 5 11 1025.7 1025.6 1.4
23/10:30am 21.8 24.6 18.8 83 1.9 W 2 9 1 5 1025.7 1025.6 0.4
23/10:00am 21.5 24.1 19.2 87 1.5 S 4 7 2 4 1026.0 1025.9 0.4
23/09:30am 21.4 23.0 19.1 87 1.5 SW 9 15 5 8 1026.0 1025.9 0.0
23/09:01am 20.4 21.8 20.4 100 0.0 SSW 13 17 7 9 1026.1 1026.0 0.0
23/09:00am 20.4 21.8 20.4 100 0.0 SSW 13 17 7 9 1026.1 1026.0 3.8
23/08:40am 19.2 20.8 19.2 100 0.0 S 9 11 5 6 1026.2 1026.1 3.6
23/08:30am 19.2 21.2 19.2 100 0.0 SSW 7 11 4 6 1026.1 1026.0 2.8
23/08:00am 18.2 19.4 18.2 100 0.0 SSW 9 13 5 7 1026.1 1026.0 2.8
23/07:30am 17.3 18.5 17.3 100 0.0 W 7 9 4 5 1025.9 1025.8 2.8
23/07:27am 17.3 18.5 17.3 100 0.0 WSW 7 9 4 5 1025.9 1025.8 2.8
23/07:00am 17.0 17.7 17.0 100 0.0 S 9 17 5 9 1025.8 1025.7 1.8
23/06:59am 17.0 17.7 17.0 100 0.0 S 9 17 5 9 1025.7 1025.6 1.6
23/06:30am 16.6 17.1 16.6 100 0.0 SW 9 11 5 6 1025.1 1025.0 1.0
23/06:00am 16.6 16.7 16.6 100 0.0 SSW 11 13 6 7 1024.7 1024.6 1.0

Other formats

Comma delimited format used in spreadsheet applications
http://www.bom.gov.au/fwo/IDN60801/IDN60801.95570.axf

JavaScript Object Notation format (JSON) in row-major order
http://www.bom.gov.au/fwo/IDN60801/IDN60801.95570.json

Data quality

Most of these data are generated automatically and are frequently updated. Quality checks on data are not normally performed. It is possible for incorrect values to appear. Refer to information at About Latest Weather Observations and please check the disclaimer before using these data.